Time;durP1;ratioP1;P1;durP2;ratioP2;P2;SDS_P1;SDS_P2;PMS_P1;PMS_P2;Temp;Humidity;BMP_temperature;BMP_pressure;BME280_temperature;BME280_humidity;BME280_pressure;Samples;Min_cycle;Max_cycle;Signal;HPM_P1;HPM_P2
2022/07/03 00:01:16;;;;;;;;;5.67;4.00;;;;;19.85;46.67;101292.41;5076116;27;45770;-62
2022/07/03 00:03:42;;;;;;;;;3.67;2.00;;;;;19.85;46.49;101289.72;5065190;27;45501;-62
2022/07/03 00:06:07;;;;;;;;;2.00;2.00;;;;;19.74;46.27;101272.56;5056519;28;45454;-63
2022/07/03 00:08:33;;;;;;;;;1.67;1.67;;;;;19.83;46.45;101289.84;5069315;27;45330;-60
2022/07/03 00:10:59;;;;;;;;;1.00;1.00;;;;;19.82;46.06;101284.56;5076211;27;45357;-62
2022/07/03 00:13:24;;;;;;;;;2.00;1.00;;;;;19.79;46.54;101282.13;5076086;27;45465;-61
2022/07/03 00:15:50;;;;;;;;;0.00;0.00;;;;;19.80;45.68;101282.00;5073219;27;45961;-61
2022/07/03 00:18:15;;;;;;;;;1.00;1.00;;;;;19.77;45.47;101287.63;5055900;28;45527;-63
2022/07/03 00:20:45;;;;;;;;;0.33;0.33;;;;;19.75;46.07;101292.31;5055825;28;45359;-62
2022/07/03 00:23:15;;;;;;;;;1.00;1.00;;;;;19.82;45.77;101298.06;5056500;28;45516;-62
2022/07/03 00:25:41;;;;;;;;;4.00;1.00;;;;;19.80;45.95;101290.09;5071154;28;45464;-63
2022/07/03 00:28:08;;;;;;;;;2.00;1.00;;;;;19.70;45.75;101281.06;5060586;28;45612;-59
2022/07/03 00:30:34;;;;;;;;;0.67;0.67;;;;;19.69;46.04;101276.66;5068753;27;45642;-60
2022/07/03 00:33:03;;;;;;;;;0.33;0.33;;;;;19.69;45.85;101284.75;5074630;28;45408;-61
2022/07/03 00:35:32;;;;;;;;;1.00;1.00;;;;;19.63;45.47;101277.16;5074615;27;45500;-61
2022/07/03 00:37:58;;;;;;;;;3.00;3.00;;;;;19.56;46.16;101274.13;5072285;27;45542;-61
2022/07/03 00:40:24;;;;;;;;;3.00;0.00;;;;;19.49;45.49;101280.94;5062627;28;45428;-63
2022/07/03 00:42:51;;;;;;;;;2.67;1.00;;;;;19.43;45.40;101281.47;5075726;27;45402;-64
2022/07/03 00:45:20;;;;;;;;;0.00;0.00;;;;;19.41;46.11;101278.91;5075273;27;45378;-64
2022/07/03 00:47:46;;;;;;;;;2.67;0.00;;;;;19.42;46.30;101288.72;5074662;27;45564;-63
2022/07/03 00:50:11;;;;;;;;;0.00;0.00;;;;;19.41;45.84;101292.41;5075980;28;45412;-63
2022/07/03 00:52:38;;;;;;;;;1.00;1.00;;;;;19.31;45.92;101283.34;5076672;27;45267;-62
2022/07/03 00:55:08;;;;;;;;;0.67;0.67;;;;;19.31;45.65;101293.25;5062304;27;45429;-60
2022/07/03 00:57:35;;;;;;;;;0.00;0.00;;;;;19.28;45.72;101289.00;5060952;27;45230;-61
2022/07/03 01:00:01;;;;;;;;;2.67;0.33;;;;;19.35;46.02;101297.41;5075716;27;45317;-61
2022/07/03 01:03:02;;;;;;;;;3.00;0.00;;;;;19.36;46.20;101291.03;5075900;27;45346;-62
2022/07/03 01:05:40;;;;;;;;;2.00;1.00;;;;;19.36;45.15;101291.03;5075406;27;45348;-62
2022/07/03 01:08:34;;;;;;;;;0.33;0.33;;;;;19.28;45.19;101294.38;5076348;27;45677;-63
2022/07/03 01:11:11;;;;;;;;;0.00;0.00;;;;;19.18;45.38;101288.00;5079346;27;45244;-63
2022/07/03 01:13:46;;;;;;;;;0.00;0.00;;;;;19.14;45.63;101287.41;5075351;27;45559;-62
2022/07/03 01:16:43;;;;;;;;;1.00;0.00;;;;;19.14;45.86;101286.53;5078884;27;46354;-62
2022/07/03 01:19:18;;;;;;;;;0.67;0.67;;;;;19.15;45.76;101293.66;5063387;27;45499;-62
2022/07/03 01:21:54;;;;;;;;;0.00;0.00;;;;;19.16;45.73;101295.38;5078398;27;45595;-63
2022/07/03 01:24:43;;;;;;;;;0.00;0.00;;;;;19.12;46.21;101289.34;5076139;27;45404;-63
2022/07/03 01:27:14;;;;;;;;;0.00;0.00;;;;;19.18;46.63;101295.25;5064672;27;47095;-64
2022/07/03 01:30:07;;;;;;;;;0.67;0.67;;;;;19.15;46.51;101288.28;5063221;27;45501;-61
2022/07/03 01:32:41;;;;;;;;;1.00;1.00;;;;;19.14;45.98;101292.81;5087494;27;45476;-61
2022/07/03 01:35:08;;;;;;;;;0.00;0.00;;;;;19.10;46.31;101291.31;5072072;27;45557;-62
2022/07/03 01:37:35;;;;;;;;;0.67;0.67;;;;;19.11;46.07;101294.88;5078423;27;47087;-61
2022/07/03 01:40:03;;;;;;;;;1.00;1.00;;;;;19.00;46.35;101293.03;5077596;27;45200;-66
2022/07/03 01:42:32;;;;;;;;;0.00;0.00;;;;;18.93;46.06;101285.56;5077459;27;45255;-62
2022/07/03 01:44:59;;;;;;;;;1.33;0.00;;;;;18.89;46.60;101284.97;5067136;27;45818;-60
2022/07/03 01:47:25;;;;;;;;;1.00;1.00;;;;;18.95;46.13;101291.69;5074000;27;45507;-61
2022/07/03 01:49:53;;;;;;;;;0.00;0.00;;;;;18.90;46.42;101293.91;5077156;27;45432;-63
2022/07/03 01:52:20;;;;;;;;;0.67;0.67;;;;;18.86;46.96;101291.44;5074603;27;45228;-60
2022/07/03 01:54:46;;;;;;;;;0.00;0.00;;;;;18.85;47.24;101292.44;5078446;27;45487;-60
2022/07/03 01:57:11;;;;;;;;;0.67;0.67;;;;;18.90;47.02;101283.13;5078501;27;46523;-61
2022/07/03 01:59:36;;;;;;;;;1.00;1.00;;;;;18.84;46.76;101285.31;5067263;27;45615;-62
2022/07/03 02:02:17;;;;;;;;;2.00;0.67;;;;;18.76;47.37;101286.94;5067468;27;45868;-60
2022/07/03 02:05:28;;;;;;;;;1.00;1.00;;;;;18.77;47.10;101284.09;5067108;27;46090;-62
2022/07/03 02:08:10;;;;;;;;;1.00;1.00;;;;;18.74;47.50;101284.34;5022741;28;45395;-60
2022/07/03 02:10:46;;;;;;;;;1.00;1.00;;;;;18.67;47.72;101283.13;5034084;28;45407;-61
2022/07/03 02:13:23;;;;;;;;;2.00;1.00;;;;;18.62;48.24;101279.91;5058355;27;45529;-62
2022/07/03 02:15:52;;;;;;;;;0.00;0.00;;;;;18.58;47.92;101275.72;5076802;27;45397;-60
2022/07/03 02:18:33;;;;;;;;;1.00;0.00;;;;;18.54;47.92;101285.03;5075304;27;45515;-61
2022/07/03 02:21:10;;;;;;;;;1.00;0.00;;;;;18.50;48.40;101288.94;5075876;27;45402;-63
2022/07/03 02:23:43;;;;;;;;;0.00;0.00;;;;;18.44;48.39;101276.81;5077085;27;45806;-62
2022/07/03 02:26:14;;;;;;;;;0.67;0.67;;;;;18.48;48.34;101293.56;5077758;27;45492;-61
2022/07/03 02:28:52;;;;;;;;;0.00;0.00;;;;;18.51;48.68;101283.44;5076657;27;46178;-63
2022/07/03 02:31:21;;;;;;;;;2.67;1.00;;;;;18.49;48.58;101284.50;5076752;27;45483;-62
2022/07/03 02:33:47;;;;;;;;;0.00;0.00;;;;;18.51;48.83;101285.28;5077877;27;45346;-62
2022/07/03 02:36:17;;;;;;;;;2.00;1.00;;;;;18.45;49.07;101272.28;5063538;27;45220;-62
2022/07/03 02:38:45;;;;;;;;;5.00;1.67;;;;;18.47;49.01;101287.34;5076837;27;45389;-61
2022/07/03 02:41:19;;;;;;;;;1.00;1.00;;;;;18.48;49.37;101290.88;5076477;27;45287;-62
2022/07/03 02:44:23;;;;;;;;;0.67;0.67;;;;;18.49;49.21;101295.28;5081052;27;45325;-61
2022/07/03 02:47:11;;;;;;;;;1.00;1.00;;;;;18.51;49.28;101305.00;5066756;27;45313;-61
2022/07/03 02:50:03;;;;;;;;;1.00;1.00;;;;;18.42;49.75;101299.44;5080081;27;46174;-62
2022/07/03 02:52:38;;;;;;;;;1.00;1.00;;;;;18.34;50.16;101312.63;5074203;27;45266;-62
2022/07/03 02:55:21;;;;;;;;;0.00;0.00;;;;;18.23;50.44;101308.09;5071739;27;45435;-63
2022/07/03 02:58:01;;;;;;;;;1.00;1.00;;;;;18.17;50.60;101309.41;5070626;27;45619;-62
2022/07/03 03:00:33;;;;;;;;;2.00;1.00;;;;;18.18;51.01;101310.28;5067590;27;46176;-62
2022/07/03 03:02:58;;;;;;;;;0.00;0.00;;;;;18.14;50.84;101311.50;5074170;27;45537;-62
2022/07/03 03:05:45;;;;;;;;;1.00;1.00;;;;;18.15;51.07;101311.38;5077196;27;45440;-64
2022/07/03 03:08:15;;;;;;;;;1.00;1.00;;;;;18.11;50.78;101311.75;5074789;27;45401;-63
2022/07/03 03:10:41;;;;;;;;;1.00;1.00;;;;;18.05;51.22;101321.13;5072935;27;46912;-62
2022/07/03 03:13:12;;;;;;;;;2.00;2.00;;;;;18.01;51.07;101303.50;5075784;27;45329;-63
2022/07/03 03:15:43;;;;;;;;;2.33;2.33;;;;;18.10;51.19;101310.88;5054815;28;45454;-61
2022/07/03 03:18:19;;;;;;;;;1.00;1.00;;;;;18.14;51.12;101306.09;5046319;28;45568;-61
2022/07/03 03:20:48;;;;;;;;;1.00;1.00;;;;;18.11;50.89;101317.13;5069353;27;46124;-62
2022/07/03 03:23:39;;;;;;;;;1.00;1.00;;;;;18.05;50.99;101318.44;5075250;27;45314;-62
2022/07/03 03:26:05;;;;;;;;;1.67;1.00;;;;;17.95;51.62;101312.00;5069808;27;45583;-62
2022/07/03 03:28:31;;;;;;;;;1.00;1.00;;;;;17.96;51.56;101313.72;5069501;27;45302;-62
2022/07/03 03:30:56;;;;;;;;;2.33;1.00;;;;;17.94;51.62;101304.91;5073562;27;45290;-63
2022/07/03 03:33:22;;;;;;;;;1.33;1.33;;;;;17.91;52.03;101315.91;5074305;27;45494;-62
2022/07/03 03:35:48;;;;;;;;;2.00;1.00;;;;;17.75;52.37;101309.97;5075316;27;45238;-62
2022/07/03 03:38:14;;;;;;;;;1.00;1.00;;;;;17.72;52.13;101310.22;5060965;27;45216;-61
2022/07/03 03:40:40;;;;;;;;;2.00;2.00;;;;;17.64;52.63;101311.59;5073271;27;45323;-60
2022/07/03 03:43:06;;;;;;;;;1.33;1.00;;;;;17.53;52.95;101291.84;5065679;27;45350;-62
2022/07/03 03:45:31;;;;;;;;;1.67;1.67;;;;;17.54;53.00;101313.25;5073332;27;45493;-62
2022/07/03 03:47:57;;;;;;;;;1.00;1.00;;;;;17.51;53.26;101307.25;5073724;27;45599;-62
2022/07/03 03:50:24;;;;;;;;;1.33;1.33;;;;;17.45;53.98;101316.63;5074998;27;45464;-60
2022/07/03 03:52:49;;;;;;;;;3.00;1.33;;;;;17.36;53.71;101322.66;5074590;27;45333;-60
2022/07/03 03:55:15;;;;;;;;;1.00;1.00;;;;;17.35;53.78;101318.28;5077031;27;45512;-64
2022/07/03 03:57:41;;;;;;;;;1.00;1.00;;;;;17.40;53.97;101310.72;5077371;27;45459;-63
2022/07/03 04:00:07;;;;;;;;;1.00;1.00;;;;;17.45;53.51;101315.75;5071853;27;45554;-65
2022/07/03 04:02:32;;;;;;;;;1.00;1.00;;;;;17.43;53.51;101310.47;5072298;27;45443;-61
2022/07/03 04:04:58;;;;;;;;;1.33;1.33;;;;;17.45;53.45;101313.06;5071892;27;45516;-61
2022/07/03 04:07:23;;;;;;;;;2.00;2.00;;;;;17.48;53.33;101316.41;5074665;27;45312;-61
2022/07/03 04:09:49;;;;;;;;;6.67;5.00;;;;;17.51;53.67;101320.69;5074563;27;46838;-61
2022/07/03 04:12:15;;;;;;;;;14.00;13.00;;;;;17.51;53.32;101326.94;5074477;27;45930;-63
2022/07/03 04:14:41;;;;;;;;;17.00;15.00;;;;;17.51;53.45;101320.69;5074623;27;45386;-62
2022/07/03 04:17:06;;;;;;;;;16.67;14.67;;;;;17.57;53.69;101329.16;5073089;27;45583;-64
2022/07/03 04:19:32;;;;;;;;;18.67;17.67;;;;;17.57;53.36;101322.91;5066600;27;46351;-60
2022/07/03 04:21:57;;;;;;;;;33.67;30.00;;;;;17.56;53.64;101332.81;5076012;27;45452;-61
2022/07/03 04:24:23;;;;;;;;;51.75;43.00;;;;;17.50;53.46;101327.91;5066250;27;45370;-62
2022/07/03 04:26:48;;;;;;;;;42.25;36.50;;;;;17.53;53.72;101332.19;5076356;27;45279;-62
2022/07/03 04:29:14;;;;;;;;;16.00;13.67;;;;;17.45;53.60;101327.38;5076920;27;45461;-64
2022/07/03 04:31:39;;;;;;;;;16.00;13.00;;;;;17.44;53.91;101322.94;5074115;27;45329;-63
2022/07/03 04:34:05;;;;;;;;;10.00;10.00;;;;;17.48;54.10;101329.84;5075764;27;45402;-63
2022/07/03 04:36:30;;;;;;;;;10.67;10.67;;;;;17.56;53.88;101343.56;5072083;27;45603;-63
2022/07/03 04:38:56;;;;;;;;;3.00;3.00;;;;;17.48;53.87;101345.97;5076946;27;45511;-62
2022/07/03 04:41:21;;;;;;;;;3.00;3.00;;;;;17.41;54.25;101350.06;5075276;27;45270;-64
2022/07/03 04:43:49;;;;;;;;;4.67;3.33;;;;;17.34;54.14;101338.06;5074794;27;45325;-64
2022/07/03 04:46:15;;;;;;;;;2.00;2.00;;;;;17.35;54.11;101342.47;5076465;27;45478;-64
2022/07/03 04:48:40;;;;;;;;;2.00;2.00;;;;;17.41;53.96;101352.75;5072805;27;45472;-61
2022/07/03 04:51:06;;;;;;;;;1.67;0.33;;;;;17.27;54.17;101331.41;5064533;27;45536;-60
2022/07/03 04:53:31;;;;;;;;;1.67;1.67;;;;;17.30;54.79;101339.22;5070154;27;45391;-62
2022/07/03 04:55:57;;;;;;;;;1.00;1.00;;;;;17.18;54.62;101327.53;5079653;27;45745;-60
2022/07/03 04:58:22;;;;;;;;;2.00;2.00;;;;;17.22;55.01;101347.00;5076639;27;45488;-61
2022/07/03 05:00:48;;;;;;;;;1.00;1.00;;;;;17.17;55.12;101350.00;5067641;27;45421;-64
2022/07/03 05:03:13;;;;;;;;;1.67;1.00;;;;;17.16;55.35;101339.38;5072045;27;45354;-63
2022/07/03 05:05:39;;;;;;;;;2.00;2.00;;;;;17.28;55.56;101349.25;5079496;27;45461;-63
2022/07/03 05:08:05;;;;;;;;;2.00;2.00;;;;;17.31;55.33;101339.13;5077998;27;47150;-62
2022/07/03 05:10:31;;;;;;;;;1.67;1.00;;;;;17.29;55.81;101334.81;5078245;27;45465;-63
2022/07/03 05:12:57;;;;;;;;;1.67;1.67;;;;;17.31;55.53;101339.13;5080762;27;45298;-62
2022/07/03 05:15:23;;;;;;;;;1.33;1.33;;;;;17.40;56.07;101354.59;5078465;27;45658;-62
2022/07/03 05:17:48;;;;;;;;;1.00;1.00;;;;;17.34;55.82;101362.25;5076527;28;45534;-61
2022/07/03 05:20:29;;;;;;;;;1.00;1.00;;;;;17.29;56.07;101357.19;5081054;27;45334;-63
2022/07/03 05:22:56;;;;;;;;;0.67;0.67;;;;;17.33;56.03;101357.84;5075436;27;45380;-61
2022/07/03 05:25:22;;;;;;;;;1.67;1.67;;;;;17.32;56.40;101340.00;5078495;27;45380;-62
2022/07/03 05:27:52;;;;;;;;;4.00;1.00;;;;;17.44;56.13;101355.22;5077888;27;45520;-61
2022/07/03 05:30:18;;;;;;;;;0.00;0.00;;;;;17.44;55.92;101348.97;5077424;27;45470;-60
2022/07/03 05:32:44;;;;;;;;;2.00;2.00;;;;;17.50;56.04;101352.09;5072257;27;45349;-60
2022/07/03 05:35:10;;;;;;;;;2.00;1.00;;;;;17.51;55.90;101345.75;5076833;27;45533;-60
2022/07/03 05:37:36;;;;;;;;;1.00;1.00;;;;;17.60;55.73;101350.47;5077986;27;45741;-63
2022/07/03 05:40:03;;;;;;;;;2.00;2.00;;;;;17.61;56.03;101360.25;5078032;27;45441;-63
2022/07/03 05:42:28;;;;;;;;;0.33;0.33;;;;;17.54;55.61;101364.34;5081332;27;45373;-62
2022/07/03 05:44:54;;;;;;;;;1.00;1.00;;;;;17.54;56.27;101358.97;5077451;27;45550;-61
2022/07/03 05:47:19;;;;;;;;;1.00;1.00;;;;;17.56;56.31;101351.63;5081843;27;45409;-61
2022/07/03 05:49:45;;;;;;;;;3.00;3.00;;;;;17.54;56.41;101353.59;5077106;27;45245;-60
2022/07/03 05:52:10;;;;;;;;;2.00;2.00;;;;;17.51;56.65;101363.72;5072744;27;45543;-60
2022/07/03 05:54:36;;;;;;;;;2.00;1.00;;;;;17.47;56.77;101365.78;5076327;27;45548;-60
2022/07/03 05:57:01;;;;;;;;;3.00;3.00;;;;;17.49;56.93;101369.22;5075925;27;45289;-65
2022/07/03 05:59:26;;;;;;;;;2.33;1.00;;;;;17.54;57.13;101367.03;5073138;27;45501;-62
2022/07/03 06:01:52;;;;;;;;;0.33;0.33;;;;;17.55;56.75;101362.50;5077665;27;45479;-60
2022/07/03 06:04:17;;;;;;;;;3.00;1.00;;;;;17.58;57.07;101363.16;5074983;27;45350;-61
2022/07/03 06:06:42;;;;;;;;;2.00;2.00;;;;;17.69;57.12;101371.31;5067476;27;45472;-61
2022/07/03 06:09:08;;;;;;;;;1.00;1.00;;;;;17.58;56.83;101362.31;5087310;27;45523;-61
2022/07/03 06:11:33;;;;;;;;;1.00;1.00;;;;;17.70;57.84;101372.19;5079079;27;46097;-61
2022/07/03 06:13:59;;;;;;;;;1.00;1.00;;;;;17.69;56.95;101375.84;5082151;27;45675;-61
2022/07/03 06:16:24;;;;;;;;;4.00;1.00;;;;;17.65;57.32;101367.13;5075352;27;45772;-62
2022/07/03 06:18:50;;;;;;;;;2.00;1.00;;;;;17.61;57.46;101365.63;5073289;27;45291;-70
2022/07/03 06:21:16;;;;;;;;;3.00;3.00;;;;;17.74;58.06;101378.22;5076678;28;45376;-61
2022/07/03 06:23:41;;;;;;;;;1.00;1.00;;;;;17.73;58.40;101389.94;5077813;27;45515;-66
2022/07/03 06:26:07;;;;;;;;;2.00;2.00;;;;;17.73;58.47;101387.25;5083310;27;45617;-62
2022/07/03 06:28:32;;;;;;;;;3.00;3.00;;;;;17.67;58.64;101384.00;5089835;27;45306;-60
2022/07/03 06:30:58;;;;;;;;;2.00;2.00;;;;;17.72;59.42;101383.72;5066809;27;45405;-59
2022/07/03 06:33:23;;;;;;;;;1.00;1.00;;;;;17.74;59.28;101388.97;5074515;27;45799;-62
2022/07/03 06:35:49;;;;;;;;;1.33;1.33;;;;;17.77;59.71;101384.22;5059622;27;46777;-61
2022/07/03 06:38:14;;;;;;;;;1.00;1.00;;;;;17.83;59.36;101377.50;5061624;28;45343;-61
2022/07/03 06:40:40;;;;;;;;;1.00;1.00;;;;;17.84;59.42;101379.22;5070346;27;45495;-61
2022/07/03 06:43:05;;;;;;;;;2.00;2.00;;;;;17.86;59.77;101377.31;5058667;27;45378;-63
2022/07/03 06:45:30;;;;;;;;;2.67;2.67;;;;;17.89;59.21;101372.56;5049311;27;47701;-60
2022/07/03 06:47:56;;;;;;;;;2.00;2.00;;;;;17.92;59.15;101375.00;5066155;27;45354;-60
2022/07/03 06:50:22;;;;;;;;;1.67;1.67;;;;;18.01;59.07;101376.16;5060409;27;45654;-60
2022/07/03 06:52:47;;;;;;;;;3.00;3.00;;;;;17.98;59.15;101373.72;5057515;27;45560;-62
2022/07/03 06:55:13;;;;;;;;;5.00;3.00;;;;;18.10;60.28;101379.97;5081060;27;46899;-62
2022/07/03 06:57:38;;;;;;;;;4.67;3.00;;;;;18.08;58.96;101371.16;5069489;27;45612;-64
2022/07/03 07:00:05;;;;;;;;;3.00;3.00;;;;;18.17;58.60;101379.41;5063745;27;45485;-60
2022/07/03 07:02:31;;;;;;;;;4.00;4.00;;;;;18.14;58.36;101387.72;5060992;27;45433;-63
2022/07/03 07:04:56;;;;;;;;;5.00;4.00;;;;;18.11;58.59;101392.50;5056843;28;45408;-60
2022/07/03 07:07:22;;;;;;;;;2.33;2.33;;;;;18.07;58.97;101391.84;5062489;27;45470;-59
2022/07/03 07:09:48;;;;;;;;;3.00;3.00;;;;;18.11;58.80;101387.97;5069656;27;45689;-60
2022/07/03 07:12:14;;;;;;;;;6.00;3.67;;;;;18.25;59.23;101395.00;5066658;27;45462;-61
2022/07/03 07:14:39;;;;;;;;;2.33;2.00;;;;;18.21;58.53;101378.19;5056847;27;46051;-64
2022/07/03 07:17:05;;;;;;;;;1.67;1.00;;;;;18.22;58.72;101381.75;5061406;27;45371;-63
2022/07/03 07:19:31;;;;;;;;;3.33;3.00;;;;;18.32;58.22;101388.16;5068642;27;45472;-67
2022/07/03 07:21:56;;;;;;;;;3.00;3.00;;;;;18.32;59.20;101379.22;5064312;27;45662;-61
2022/07/03 07:24:22;;;;;;;;;3.00;3.00;;;;;18.46;59.62;101393.34;5062417;27;45417;-60
2022/07/03 07:26:47;;;;;;;;;2.33;2.33;;;;;18.49;59.03;101392.25;5063036;27;45468;-63
2022/07/03 07:29:12;;;;;;;;;4.00;2.00;;;;;18.55;58.14;101402.56;5073120;27;45366;-63
2022/07/03 07:31:38;;;;;;;;;2.00;2.00;;;;;18.53;59.79;101404.53;5073527;27;45530;-61
2022/07/03 07:34:04;;;;;;;;;2.00;2.00;;;;;18.54;58.59;101398.16;5063502;27;45924;-63
2022/07/03 07:36:31;;;;;;;;;4.00;3.00;;;;;18.60;58.92;101405.75;5073851;27;45565;-61
2022/07/03 07:38:56;;;;;;;;;3.00;3.00;;;;;18.61;58.41;101385.94;5058720;27;45469;-61
2022/07/03 07:41:22;;;;;;;;;4.00;2.67;;;;;18.59;58.59;101387.88;5067941;27;45567;-62
2022/07/03 07:43:47;;;;;;;;;2.67;2.67;;;;;18.75;59.29;101401.06;5077319;28;46318;-63
2022/07/03 07:46:13;;;;;;;;;4.00;3.00;;;;;18.67;58.24;101401.66;5074314;27;45585;-62
2022/07/03 07:48:38;;;;;;;;;4.00;3.67;;;;;18.71;59.13;101403.13;5074592;27;45488;-60
2022/07/03 07:51:04;;;;;;;;;3.00;3.00;;;;;18.79;59.40;101395.34;5062087;27;45564;-61
2022/07/03 07:53:29;;;;;;;;;4.00;4.00;;;;;18.88;58.19;101393.75;5093686;27;45175;-61
2022/07/03 07:55:55;;;;;;;;;5.00;4.00;;;;;18.97;58.54;101397.56;5059071;27;45764;-63
2022/07/03 07:58:22;;;;;;;;;3.67;3.67;;;;;19.00;58.08;101397.31;5072987;27;45335;-60
2022/07/03 08:06:15;;;;;;;;;3.00;3.00;;;;;19.09;57.85;101391.19;5076742;27;45323;-62
2022/07/03 08:08:40;;;;;;;;;3.00;3.00;;;;;19.17;57.26;101409.47;5076884;27;45255;-60
2022/07/03 08:11:06;;;;;;;;;3.00;3.00;;;;;19.12;56.56;101396.34;5075099;27;45615;-62
2022/07/03 08:13:31;;;;;;;;;2.33;2.33;;;;;19.10;56.26;101392.91;5061807;27;46321;-63
2022/07/03 08:15:57;;;;;;;;;3.00;3.00;;;;;19.22;56.67;101404.56;5059341;27;45349;-63
2022/07/03 08:18:22;;;;;;;;;4.00;4.00;;;;;19.18;56.61;101387.78;5058016;27;45373;-62
2022/07/03 08:20:48;;;;;;;;;3.67;3.67;;;;;19.34;55.99;101396.34;5061940;27;45638;-66
2022/07/03 08:23:14;;;;;;;;;3.00;3.00;;;;;19.27;56.28;101378.97;5075985;27;46990;-61
2022/07/03 08:25:39;;;;;;;;;4.67;3.33;;;;;19.43;56.33;101398.31;5075334;27;45527;-62
2022/07/03 08:28:05;;;;;;;;;4.67;3.00;;;;;19.55;56.45;101391.13;5079931;27;45460;-61
2022/07/03 08:30:30;;;;;;;;;3.33;2.00;;;;;19.74;54.66;101402.13;5071483;27;45422;-65
2022/07/03 08:32:58;;;;;;;;;3.00;3.00;;;;;20.21;57.41;101399.19;5062148;27;45650;-64
2022/07/03 08:35:23;;;;;;;;;4.00;3.00;;;;;20.89;53.10;101393.31;5060205;27;45419;-64
2022/07/03 08:37:50;;;;;;;;;3.67;2.00;;;;;21.40;51.29;101381.66;5058845;28;45540;-58
2022/07/03 08:40:17;;;;;;;;;2.00;2.00;;;;;21.83;50.13;101377.75;5059518;28;45374;-59
2022/07/03 08:42:48;;;;;;;;;2.00;2.00;;;;;22.32;48.54;101384.97;5062530;28;45511;-63
2022/07/03 08:45:19;;;;;;;;;2.00;2.00;;;;;22.82;49.98;101386.66;5068368;28;45301;-65
2022/07/03 08:47:47;;;;;;;;;6.00;3.00;;;;;23.14;47.40;101387.16;5070914;27;47301;-60
2022/07/03 08:50:22;;;;;;;;;2.75;2.75;;;;;23.43;46.94;101376.16;5058194;28;45549;-66
2022/07/03 08:52:48;;;;;;;;;4.00;4.00;;;;;23.51;44.59;101354.56;5059075;28;45347;-60
2022/07/03 08:55:15;;;;;;;;;5.00;4.00;;;;;23.77;43.33;101367.44;5073846;28;45414;-64
2022/07/03 08:57:42;;;;;;;;;3.00;3.00;;;;;24.10;46.66;101372.22;5080893;27;45274;-62
2022/07/03 09:00:16;;;;;;;;;3.75;1.75;;;;;24.52;42.41;101382.47;5079392;27;45536;-64
2022/07/03 09:02:44;;;;;;;;;2.00;2.00;;;;;24.64;41.82;101383.09;5074462;27;45650;-60
2022/07/03 09:05:14;;;;;;;;;4.50;2.50;;;;;25.01;45.08;101369.28;5071047;28;45394;-67
2022/07/03 09:07:42;;;;;;;;;3.40;3.00;;;;;25.54;41.30;101370.88;5074801;27;45393;-61
2022/07/03 09:10:10;;;;;;;;;4.00;2.75;;;;;25.86;43.68;101381.91;5074773;28;45653;-63
2022/07/03 09:12:36;;;;;;;;;1.75;1.75;;;;;26.27;40.91;101378.41;5077306;27;45467;-61
2022/07/03 09:15:04;;;;;;;;;3.50;1.75;;;;;26.66;43.05;101379.47;5067729;27;45634;-64
2022/07/03 09:17:30;;;;;;;;;1.00;1.00;;;;;26.96;41.75;101375.16;5078905;27;45388;-64
2022/07/03 09:19:58;;;;;;;;;3.00;3.00;;;;;26.92;36.77;101371.06;5075013;27;45405;-63
2022/07/03 09:22:25;;;;;;;;;3.60;2.80;;;;;27.00;37.73;101372.94;5073989;28;45506;-65
2022/07/03 09:25:02;;;;;;;;;2.80;2.80;;;;;26.74;37.91;101367.69;5075152;27;45518;-72
2022/07/03 09:27:28;;;;;;;;;4.60;2.80;;;;;26.83;40.79;101374.00;5065213;27;45563;-68
2022/07/03 09:29:59;;;;;;;;;4.00;2.00;;;;;26.96;41.27;101361.53;5067715;27;45433;-69
2022/07/03 09:32:26;;;;;;;;;3.00;3.00;;;;;27.40;40.53;101349.28;5076112;27;47154;-66
2022/07/03 09:35:19;;;;;;;;;1.00;1.00;;;;;27.90;38.56;101376.22;5077419;27;45493;-71
2022/07/03 09:38:04;;;;;;;;;2.00;2.00;;;;;27.47;35.91;101370.22;5068612;27;45511;-67
2022/07/03 09:40:55;;;;;;;;;3.40;3.40;;;;;26.93;36.89;101364.56;5077775;27;45449;-69
2022/07/03 09:43:31;;;;;;;;;2.40;1.80;;;;;26.86;37.86;101370.91;5075887;27;45630;-68
2022/07/03 09:45:59;;;;;;;;;4.20;3.00;;;;;27.30;37.75;101363.13;5067214;27;45314;-65
2022/07/03 09:48:29;;;;;;;;;4.40;4.20;;;;;27.27;37.52;101371.69;5076755;27;45292;-66
2022/07/03 09:51:20;;;;;;;;;4.80;4.00;;;;;27.54;35.75;101371.25;5077591;27;45465;-65
2022/07/03 09:53:55;;;;;;;;;2.40;2.40;;;;;27.90;38.24;101370.75;5077701;27;45547;-65
2022/07/03 09:56:32;;;;;;;;;3.00;3.00;;;;;28.26;36.00;101368.28;5061387;28;45454;-69
2022/07/03 09:59:00;;;;;;;;;3.00;2.60;;;;;28.06;34.65;101372.53;5058302;28;45166;-65
2022/07/03 10:01:26;;;;;;;;;5.00;5.00;;;;;27.74;36.41;101373.59;5072473;28;45379;-61
2022/07/03 10:03:51;;;;;;;;;1.00;1.00;;;;;27.63;36.13;101372.06;5060523;27;45410;-61
2022/07/03 10:06:16;;;;;;;;;3.00;3.00;;;;;27.53;36.23;101366.81;5060108;28;45366;-63
2022/07/03 10:08:43;;;;;;;;;3.00;3.00;;;;;27.46;37.78;101374.00;5072362;27;45463;-63
2022/07/03 10:11:09;;;;;;;;;2.40;1.00;;;;;27.24;36.29;101374.78;5098745;27;45407;-64
2022/07/03 10:13:41;;;;;;;;;5.40;4.00;;;;;26.86;36.62;101379.97;5075794;27;48257;-57
2022/07/03 10:16:08;;;;;;;;;4.80;4.80;;;;;26.54;37.62;101388.16;5077367;27;45437;-66
2022/07/03 10:18:39;;;;;;;;;4.60;4.60;;;;;26.48;38.34;101391.56;5083136;27;45539;-65
2022/07/03 10:21:06;;;;;;;;;5.25;5.25;;;;;26.56;37.50;101384.22;5075620;27;45957;-65
2022/07/03 10:23:33;;;;;;;;;4.80;4.80;;;;;26.65;38.14;101382.34;5074298;27;45501;-64
2022/07/03 10:25:58;;;;;;;;;3.60;3.60;;;;;26.82;36.91;101384.03;5073412;27;45412;-66
2022/07/03 10:28:24;;;;;;;;;4.00;4.00;;;;;26.68;37.03;101382.84;5064020;27;45522;-62
2022/07/03 10:30:51;;;;;;;;;5.25;5.25;;;;;26.53;37.05;101383.72;5064273;28;45547;-63
2022/07/03 10:33:17;;;;;;;;;4.00;4.00;;;;;26.32;37.67;101382.34;5076889;27;46219;-61
2022/07/03 10:35:54;;;;;;;;;6.80;6.80;;;;;26.42;37.13;101388.50;5060577;28;45334;-62
2022/07/03 10:38:31;;;;;;;;;9.40;4.60;;;;;25.73;38.71;101380.69;5078480;28;45431;-68
2022/07/03 10:46:44;;;;;;;;;3.25;3.25;;;;;24.80;39.49;101385.06;5077674;27;45349;-66
2022/07/03 10:49:11;;;;;;;;;4.00;4.00;;;;;24.53;40.80;101391.50;5076974;27;45322;-58
2022/07/03 10:52:03;;;;;;;;;3.25;2.25;;;;;24.61;40.79;101384.25;5078750;27;45486;-65
2022/07/03 10:54:33;;;;;;;;;8.00;6.00;;;;;24.70;40.83;101383.28;5064448;27;45889;-60
2022/07/03 10:56:59;;;;;;;;;5.75;5.25;;;;;24.67;40.26;101394.50;5080466;27;45402;-62
2022/07/03 10:59:45;;;;;;;;;3.50;3.50;;;;;24.76;41.05;101392.69;5075944;27;45345;-61
2022/07/03 11:02:23;;;;;;;;;6.25;4.75;;;;;24.81;40.31;101386.78;5060341;27;45493;-63
2022/07/03 11:04:59;;;;;;;;;2.00;2.00;;;;;24.76;40.17;101386.41;5060653;27;46130;-64
2022/07/03 11:07:24;;;;;;;;;5.75;5.00;;;;;24.71;40.72;101389.59;5057248;28;45413;-63
2022/07/03 11:10:14;;;;;;;;;5.50;5.50;;;;;24.66;40.89;101390.06;5073819;28;45251;-63
2022/07/03 11:13:21;;;;;;;;;4.50;4.50;;;;;24.70;40.66;101394.19;5077692;27;45603;-64
2022/07/03 11:15:48;;;;;;;;;2.50;2.50;;;;;24.57;41.23;101388.28;5070576;27;45413;-65
2022/07/03 11:18:17;;;;;;;;;5.40;5.40;;;;;24.52;40.52;101390.63;5071768;27;45688;-60
2022/07/03 11:20:51;;;;;;;;;4.00;3.00;;;;;24.45;41.48;101383.25;5064447;27;45462;-62
2022/07/03 11:23:33;;;;;;;;;4.75;4.75;;;;;24.44;40.89;101387.00;5058267;27;45622;-69
2022/07/03 11:26:20;;;;;;;;;5.50;4.00;;;;;24.59;41.16;101380.81;5092403;27;46228;-67
2022/07/03 11:28:46;;;;;;;;;3.75;3.75;;;;;24.53;40.70;101391.50;5075284;27;45260;-60
2022/07/03 11:31:13;;;;;;;;;3.00;3.00;;;;;24.36;41.31;101385.91;5061604;27;45544;-67
2022/07/03 11:33:41;;;;;;;;;3.75;3.75;;;;;24.25;41.58;101390.69;5061773;27;45570;-62
2022/07/03 11:36:09;;;;;;;;;3.75;3.00;;;;;24.17;41.25;101385.19;5056771;28;46743;-62
2022/07/03 11:38:35;;;;;;;;;2.50;2.50;;;;;24.16;41.19;101380.75;5059892;27;45245;-61
2022/07/03 11:41:02;;;;;;;;;3.00;3.00;;;;;24.09;41.71;101392.25;5076542;27;45442;-62
2022/07/03 11:43:28;;;;;;;;;2.50;2.50;;;;;23.99;41.71;101383.31;5075049;27;45310;-59
2022/07/03 11:45:54;;;;;;;;;3.00;3.00;;;;;23.94;42.34;101380.19;5082491;27;45458;-61